Nevada, Ohio
Current Conditions -  °F | °C
As of 3:53 PM on Tuesday 25 Nov 2014 (Local Time) from KMNN Reporting Station
Overcast Overcast  
Wind Chill: 25°   Ceiling: 2100
Heat Index: 34°   Visibility: 8mi
Dew Point: 27°   Wind: 13mph
Humidity: 75%   Direction: 290°WNW
Pressure: 30.11"   Gusts: NA
Location:  40.82°N, 83.13°W
Report Text: KMNN 252053Z AUTO 29011KT 8SM OVC021 01/M03 A3011 RMK AO2 SLP206 T00111028 51017 TSNO
Loading
Personal Weather Stations






























Interactive Weather Map New forecast layout! Learn more

10-Day Weather Forecast

Advertisements
Track Severe Weather on mobile